Latest Coastal Weather Observations for Hobart

IDT60701

Issued at 3:03 am EDT Thursday 19 January 2017 (issued every 10 minutes, with the page automatically refreshed every 10 minutes)

About coastal observations | Map of coastal stations | Coastal observations for TAS | Marine services | Other Formats
Station Details ID: 094029 Name: HOBART (ELLERSLIE ROAD) Lat: -42.89 Lon: 147.33 Height: 50.5 m
Data from the previous 72 hours. | See also: Recent months at Hobart
Date/Time
EDT
Temp
°C
Wind Pressure Rain since
9am
mm
Weather Cloud Vis
km
Sea
Height
m
Swell
Dir  Spd
kts
Gust
kts
hPa Trend Height
m
Period
s
Dir
19/02:30am 11.8 NW 5 8 1017.0 - 0.0 - - - - - - -
19/02:00am 11.4 WSW 11 19 1016.9 - 0.0 - - - - - - -
19/01:30am 12.2 SW 5 8 1016.9 - 0.0 - - - - - - -
19/01:00am 11.9 S 7 11 1016.7 - 0.0 - - - - - - -
19/12:30am 12.0 S 4 8 1016.9 - 0.0 - - - - - - -
19/12:00am 12.2 SW 8 12 1016.8 - 0.0 - - - - - - -
 
Date/Time
EDT
Temp
°C
Wind Pressure Rain since
9am
mm
Weather Cloud Vis
km
Sea
Height
m
Swell
Dir  Spd
kts
Gust
kts
hPa Trend Height
m
Period
s
Dir
18/11:30pm 12.6 SW 12 17 1016.7 - 0.0 - - - - - - -
18/11:00pm 12.8 SW 7 15 1016.7 - 0.0 - - - - - - -
18/10:30pm 13.0 SSW 8 13 1016.6 - 0.0 - - - - - - -
18/10:00pm 13.2 SW 9 14 1016.5 - 0.0 - - - - - - -
18/09:30pm 13.7 SSW 5 9 1016.3 - 0.0 - - - - - - -
18/09:00pm 13.9 SW 8 13 1015.8 - 0.0 - - - - - - -
18/08:30pm 14.2 SW 7 11 1015.5 - 0.0 - - - - - - -
18/08:00pm 14.6 SW 10 18 1015.2 - 0.0 - - - - - - -
18/07:30pm 15.4 SW 11 15 1014.6 - 0.0 - - - - - - -
18/07:00pm 16.6 WSW 12 18 1014.0 - 0.0 - - - - - - -
18/06:30pm 17.0 WSW 12 17 1013.4 - 0.0 - - - - - - -
18/06:11pm 17.5 SW 15 26 1013.1 - 0.0 - - - - - - -
18/06:00pm 17.8 SW 11 21 1012.9 - 0.0 - - - - - - -
18/05:34pm 17.7 W 15 26 1012.4 - 0.0 - - - - - - -
18/05:30pm 18.1 WSW 12 23 1012.5 - 0.0 - - - - - - -
18/05:00pm 19.2 WSW 9 24 1012.2 - 0.0 - - - - - - -
18/04:35pm 18.4 SW 14 27 1012.1 - 0.0 - - - - - - -
18/04:30pm 18.3 SW 12 21 1012.1 - 0.0 - - - - - - -
18/04:08pm 18.1 WSW 17 27 1011.8 - 0.0 - - - - - - -
18/04:00pm 18.7 WSW 12 23 1011.7 - 0.0 - - - - - - -
18/03:30pm 17.8 SW 15 26 1011.4 - 0.0 - - - - - - -
18/03:24pm 17.4 SW 13 26 1011.2 - 0.0 - - - - - - -
18/03:00pm 17.0 SW 8 20 1011.2 - 0.0 - - - - - - -
18/02:30pm 17.2 WSW 11 20 1010.9 - 0.0 - - - - - - -
18/02:00pm 17.7 WSW 19 31 1010.5 - 0.0 - - - - - - -
18/01:30pm 17.5 WSW 17 33 1010.0 - 0.0 - - - - - - -
18/01:01pm 16.4 SW 15 25 1009.7 - 0.0 - - - - - - -
18/01:00pm 16.4 SW 15 25 1009.6 - 0.0 - - - - - - -
18/12:43pm 16.7 WSW 15 29 1009.7 - 0.0 - - - - - - -
18/12:30pm 17.6 WSW 17 26 1009.3 - 0.0 - - - - - - -
18/12:02pm 15.9 WSW 15 38 1009.2 - 0.0 - - - - - - -
18/12:00pm 16.3 WSW 14 26 1009.2 - 0.0 - - - - - - -
18/11:53am 15.7 WSW 15 26 1009.2 - 0.0 - - - - - - -
18/11:30am 16.7 WSW 13 23 1008.5 - 0.0 - - - - - - -
18/11:07am 16.3 WSW 15 25 1008.2 - 0.0 - - - - - - -
18/11:00am 17.0 WSW 14 21 1007.9 - 0.0 - - - - - - -
18/10:30am 16.2 SW 16 27 1007.2 - 0.0 - - - - - - -
18/10:06am 16.1 WSW 15 26 1007.0 - 0.0 - - - - - - -
18/10:00am 15.9 WSW 13 25 1007.0 - 0.0 - - - - - - -
18/09:32am 15.6 SW 15 28 1006.7 - 0.0 - - - - - - -
18/09:30am 15.3 SW 13 28 1006.6 - 0.0 - - - - - - -
18/09:02am 15.5 WSW 12 26 1005.9 - 0.0 - - - - - - -
18/09:00am 15.5 SW 11 20 1006.0 - 0.0 - - - - - - -
18/08:31am 14.7 SW 13 26 1005.6 - 0.0 - - - - - - -
18/08:30am 14.7 SW 12 26 1005.5 - 0.0 - - - - - - -
18/08:00am 13.7 S 6 13 1005.2 - 0.0 - - - - - - -
18/07:30am 13.6 SSW 10 20 1004.6 - 0.0 - - - - - - -
18/07:00am 14.0 SW 12 25 1004.0 - 0.0 - - - - - - -
18/06:51am 14.4 WSW 12 28 1003.7 - 0.0 - - - - - - -
18/06:30am 14.0 ESE 6 17 1003.2 - 0.0 - - - - - - -
18/06:00am 14.0 WSW 11 26 1003.0 - 0.0 - - - - - - -
18/05:37am 14.5 W 16 32 1002.1 - 0.0 - - - - - - -
18/05:30am 14.4 W 13 26 1001.8 - 0.0 - - - - - - -
18/05:00am 14.5 W 25 52 1001.3 - 0.0 - - - - - - -
18/04:59am 14.6 W 25 52 1001.3 - 0.0 - - - - - - -
18/04:56am 14.7 WSW 25 52 1001.1 - 0.0 - - - - - - -
18/04:51am 14.8 WSW 19 45 1001.1 - 0.0 - - - - - - -
18/04:35am 14.8 W 19 31 1001.4 - 0.0 - - - - - - -
18/04:34am 14.9 W 18 31 1001.5 - 0.0 - - - - - - -
18/04:30am 15.1 WNW 16 31 1001.3 - 0.0 - - - - - - -
18/04:28am 15.1 WNW 15 31 1001.0 - 0.0 - - - - - - -
18/04:00am 14.4 NW 13 20 1000.7 - 0.0 - - - - - - -
18/03:30am 14.4 WNW 14 22 1000.8 - 0.0 - - - - - - -
18/03:00am 14.6 NW 8 17 1001.4 - 0.0 - - - - - - -
18/02:40am 15.2 WNW 16 26 1001.7 - 0.0 - - - - - - -
18/02:30am 15.1 WNW 9 18 1001.9 - 0.0 - - - - - - -
18/02:00am 15.9 WNW 11 19 1001.9 - 0.0 - - - - - - -
18/01:30am 16.7 WNW 7 15 1002.0 - 0.0 - - - - - - -
18/01:00am 17.7 NW 10 23 1001.6 - 0.0 - - - - - - -
18/12:30am 18.1 NW 8 15 1001.7 - 0.0 - - - - - - -
18/12:00am 18.3 NW 11 22 1001.8 - 0.0 - - - - - - -
 
Date/Time
EDT
Temp
°C
Wind Pressure Rain since
9am
mm
Weather Cloud Vis
km
Sea
Height
m
Swell
Dir  Spd
kts
Gust
kts
hPa Trend Height
m
Period
s
Dir
17/11:30pm 18.6 NW 12 18 1002.0 - 0.0 - - - - - - -
17/11:00pm 17.2 WNW 4 8 1002.4 - 0.0 - - - - - - -
17/10:30pm 17.3 CALM 0 0 1002.4 - 0.0 - - - - - - -
17/10:00pm 17.5 W 3 5 1002.4 - 0.0 - - - - - - -
17/09:30pm 17.7 CALM 0 3 1002.4 - 0.0 - - - - - - -
17/09:00pm 17.8 ESE 5 6 1002.2 - 0.0 - - - - - - -
17/08:30pm 18.1 SE 5 7 1002.7 - 0.0 - - - - - - -
17/08:00pm 18.4 SSE 4 5 1002.7 - 0.0 - - - - - - -
17/07:30pm 18.4 SSE 4 6 1002.3 - 0.0 - - - - - - -
17/07:00pm 18.6 ESE 6 7 1002.3 - 0.0 - - - - - - -
17/06:30pm 18.7 SE 7 10 1002.1 - 0.0 - - - - - - -
17/06:00pm 18.9 S 6 9 1002.3 - 0.0 - - - - - - -
17/05:30pm 18.8 SSW 7 10 1002.5 - 0.0 - - - - - - -
17/05:00pm 18.6 S 7 11 1002.5 - 0.0 - - - - - - -
17/04:30pm 18.2 SE 11 15 1002.6 - 0.0 - - - - - - -
17/04:00pm 19.5 SE 9 13 1002.4 - 0.0 - - - - - - -
17/03:30pm 19.5 SE 13 17 1002.5 - 0.0 - - - - - - -
17/03:00pm 19.7 SE 15 19 1002.4 - 0.0 - - - - - - -
17/02:30pm 20.1 ESE 12 17 1002.4 - 0.0 - - - - - - -
17/02:00pm 20.8 SE 5 12 1002.3 - 0.0 - - - - - - -
17/01:30pm 21.1 E 8 15 1002.4 - 0.0 - - - - - - -
17/01:00pm 23.0 NE 6 11 1002.9 - 0.0 - - - - - - -
17/12:30pm 22.1 ESE 5 10 1003.0 - 0.0 - - - - - - -
17/12:00pm 21.1 ESE 8 10 1003.1 - 0.0 - - - - - - -
17/11:30am 21.8 SE 9 13 1003.2 - 0.0 - - - - - - -
17/11:00am 21.9 SSE 7 13 1003.6 - 0.0 - - - - - - -
17/10:30am 22.1 N 9 16 1003.9 - 0.0 - - - - - - -
17/10:00am 20.9 NNE 9 15 1004.2 - 0.0 - - - - - - -
17/09:30am 19.9 N 6 12 1004.9 - 0.0 - - - - - - -
17/09:00am 19.1 N 7 11 1005.1 - 0.0 - - - - - - -
17/08:30am 17.6 NE 5 7 1005.6 - 0.0 - - - - - - -
17/08:00am 17.2 NNW 4 7 1005.7 - 0.0 - - - - - - -
17/07:30am 16.4 NE 3 4 1005.6 - 0.0 - - - - - - -
17/07:00am 14.8 W 3 5 1005.1 - 0.0 - - - - - - -
17/06:30am 13.2 W 5 7 1004.9 - 0.0 - - - - - - -
17/06:00am 12.8 WSW 7 9 1004.5 - 0.0 - - - - - - -
17/05:30am 13.4 W 6 9 1004.2 - 0.0 - - - - - - -
17/05:00am 13.5 WSW 8 10 1003.8 - 0.0 - - - - - - -
17/04:30am 13.6 WSW 7 9 1003.6 - 0.0 - - - - - - -
17/04:00am 14.2 WSW 7 9 1003.7 - 0.0 - - - - - - -
17/03:30am 15.1 W 7 9 1003.7 - 0.0 - - - - - - -
17/03:00am 15.7 WNW 9 15 1003.6 - 0.0 - - - - - - -
17/02:30am 16.4 N 12 24 1003.0 - 0.0 - - - - - - -
17/02:00am 16.3 N 12 22 1003.7 - 0.0 - - - - - - -
17/01:30am 16.7 NNW 13 21 1004.2 - 0.0 - - - - - - -
17/01:00am 17.2 NNW 12 22 1004.1 - 0.0 - - - - - - -
17/12:30am 17.3 NNW 12 19 1004.6 - 0.0 - - - - - - -
17/12:00am 15.5 WNW 4 8 1005.4 - 0.0 - - - - - - -
 
Date/Time
EDT
Temp
°C
Wind Pressure Rain since
9am
mm
Weather Cloud Vis
km
Sea
Height
m
Swell
Dir  Spd
kts
Gust
kts
hPa Trend Height
m
Period
s
Dir
16/11:30pm 15.5 SW 3 4 1005.7 - 0.0 - - - - - - -
16/11:00pm 16.2 CALM 0 0 1005.8 - 0.0 - - - - - - -
16/10:30pm 16.7 NE 1 5 1006.0 - 0.0 - - - - - - -
16/10:00pm 17.0 CALM 0 3 1006.2 - 0.0 - - - - - - -
16/09:30pm 17.4 W 3 7 1006.2 - 0.0 - - - - - - -
16/09:00pm 18.3 SE 5 7 1006.1 - 0.0 - - - - - - -
16/08:30pm 18.9 SE 7 9 1006.0 - 0.0 - - - - - - -
16/08:00pm 19.4 SE 7 9 1005.9 - 0.0 - - - - - - -
16/07:30pm 19.8 SE 8 11 1006.0 - 0.0 - - - - - - -
16/07:00pm 20.5 SE 8 10 1005.9 - 0.0 - - - - - - -
16/06:30pm 21.0 SE 9 11 1006.0 - 0.0 - - - - - - -
16/06:00pm 20.8 SE 10 12 1006.2 - 0.0 - - - - - - -
16/05:30pm 21.6 SE 10 15 1006.5 - 0.0 - - - - - - -
16/05:00pm 21.9 SE 11 16 1006.7 - 0.0 - - - - - - -
16/04:30pm 22.4 ESE 9 13 1007.0 - 0.0 - - - - - - -
16/04:00pm 22.7 ESE 9 13 1007.2 - 0.0 - - - - - - -
16/03:30pm 22.7 SE 9 11 1007.7 - 0.0 - - - - - - -
16/03:00pm 22.2 ESE 10 13 1007.9 - 0.0 - - - - - - -
16/02:30pm 22.4 ESE 10 15 1008.3 - 0.0 - - - - - - -
16/02:00pm 24.0 NNW 8 15 1008.6 - 0.0 - - - - - - -
16/01:30pm 24.0 NW 14 21 1008.9 - 0.0 - - - - - - -
16/01:00pm 22.9 NNW 15 23 1009.2 - 0.0 - - - - - - -
16/12:30pm 22.3 NW 14 21 1009.6 - 0.0 - - - - - - -
16/12:00pm 21.6 NNW 13 20 1009.8 - 0.0 - - - - - - -
16/11:30am 21.1 NNW 14 22 1010.0 - 0.0 - - - - - - -
16/11:00am 20.4 NW 15 22 1010.3 - 0.0 - - - - - - -
16/10:30am 19.7 NNW 14 21 1010.4 - 0.0 - - - - - - -
16/10:00am 18.2 NNW 11 18 1010.7 - 0.0 - - - - - - -
16/09:30am 18.0 NNW 12 18 1010.9 - 0.0 - - - - - - -
16/09:00am 17.2 NNW 15 22 1010.7 - 0.0 - - - - - - -
16/08:30am 16.5 NNW 13 19 1010.6 - 0.0 - - - - - - -
16/08:00am 16.2 NNW 12 17 1010.7 - 0.0 - - - - - - -
16/07:31am 15.6 NW 15 25 1010.3 - 0.0 - - - - - - -
16/07:30am 15.5 NNW 16 25 1010.4 - 0.0 - - - - - - -
16/07:23am 15.1 NNW 15 25 1010.3 - 0.0 - - - - - - -
16/07:00am 14.3 NW 9 15 1010.3 - 0.0 - - - - - - -
16/06:30am 13.9 NW 11 18 1010.2 - 0.0 - - - - - - -
16/06:00am 13.8 NW 13 20 1010.2 - 0.0 - - - - - - -
16/05:30am 14.0 NW 14 22 1009.8 - 0.0 - - - - - - -
16/05:00am 14.2 NNW 16 24 1009.7 - 0.0 - - - - - - -
16/04:30am 14.1 NNW 18 25 1009.5 - 0.0 - - - - - - -
16/04:00am 14.1 NNW 16 22 1009.4 - 0.0 - - - - - - -
16/03:30am 14.2 NNW 17 25 1009.7 - 0.0 - - - - - - -

Other Formats:

Comma delimited format used in spreadsheet applications
http://www.bom.gov.au/fwo/IDT60701/IDT60701.94970.axf

JavaScript Object Notation format (JSON) in row-major order
http://www.bom.gov.au/fwo/IDT60701/IDT60701.94970.json